sensor_id;sensor_type;location;lat;lon;timestamp;P1;durP1;ratioP1;P2;durP2;ratioP2
19802;SDS011;66074;50.764;6.090;2023-04-01T00:01:25;2.00;;;0.73;;
19802;SDS011;66074;50.764;6.090;2023-04-01T00:03:51;3.50;;;0.85;;
19802;SDS011;66074;50.764;6.090;2023-04-01T00:06:18;1.25;;;0.63;;
19802;SDS011;66074;50.764;6.090;2023-04-01T00:08:44;1.85;;;0.75;;
19802;SDS011;66074;50.764;6.090;2023-04-01T00:11:10;2.22;;;0.90;;
19802;SDS011;66074;50.764;6.090;2023-04-01T00:13:36;3.53;;;0.75;;
19802;SDS011;66074;50.764;6.090;2023-04-01T00:16:02;2.70;;;0.70;;
19802;SDS011;66074;50.764;6.090;2023-04-01T00:18:29;2.15;;;1.02;;
19802;SDS011;66074;50.764;6.090;2023-04-01T00:20:54;2.83;;;0.98;;
19802;SDS011;66074;50.764;6.090;2023-04-01T00:23:20;2.55;;;0.80;;
19802;SDS011;66074;50.764;6.090;2023-04-01T00:25:47;1.65;;;0.70;;
19802;SDS011;66074;50.764;6.090;2023-04-01T00:28:17;1.63;;;0.68;;
19802;SDS011;66074;50.764;6.090;2023-04-01T00:30:44;1.65;;;0.65;;
19802;SDS011;66074;50.764;6.090;2023-04-01T00:33:10;2.05;;;1.48;;
19802;SDS011;66074;50.764;6.090;2023-04-01T00:35:36;1.30;;;0.60;;
19802;SDS011;66074;50.764;6.090;2023-04-01T00:38:02;1.83;;;0.88;;
19802;SDS011;66074;50.764;6.090;2023-04-01T00:42:55;1.65;;;0.50;;
19802;SDS011;66074;50.764;6.090;2023-04-01T00:45:26;1.08;;;0.50;;
19802;SDS011;66074;50.764;6.090;2023-04-01T00:47:54;2.03;;;0.65;;
19802;SDS011;66074;50.764;6.090;2023-04-01T00:50:22;2.40;;;0.68;;
19802;SDS011;66074;50.764;6.090;2023-04-01T00:52:51;3.53;;;0.65;;
19802;SDS011;66074;50.764;6.090;2023-04-01T00:55:18;1.00;;;0.50;;
19802;SDS011;66074;50.764;6.090;2023-04-01T00:57:45;2.80;;;0.55;;
19802;SDS011;66074;50.764;6.090;2023-04-01T01:00:12;1.33;;;0.60;;
19802;SDS011;66074;50.764;6.090;2023-04-01T01:02:42;2.03;;;0.70;;
19802;SDS011;66074;50.764;6.090;2023-04-01T01:05:13;1.83;;;0.70;;
19802;SDS011;66074;50.764;6.090;2023-04-01T01:07:47;0.40;;;0.40;;
19802;SDS011;66074;50.764;6.090;2023-04-01T01:10:32;1.25;;;0.75;;
19802;SDS011;66074;50.764;6.090;2023-04-01T01:15:52;1.60;;;0.60;;
19802;SDS011;66074;50.764;6.090;2023-04-01T01:26:16;1.73;;;0.60;;
19802;SDS011;66074;50.764;6.090;2023-04-01T01:36:48;1.48;;;0.60;;
19802;SDS011;66074;50.764;6.090;2023-04-01T01:39:20;1.20;;;0.52;;
19802;SDS011;66074;50.764;6.090;2023-04-01T01:41:52;0.65;;;0.50;;
19802;SDS011;66074;50.764;6.090;2023-04-01T01:44:20;1.13;;;0.60;;
19802;SDS011;66074;50.764;6.090;2023-04-01T01:46:46;0.93;;;0.40;;
19802;SDS011;66074;50.764;6.090;2023-04-01T01:49:13;1.05;;;0.40;;
19802;SDS011;66074;50.764;6.090;2023-04-01T01:51:41;0.43;;;0.43;;
19802;SDS011;66074;50.764;6.090;2023-04-01T01:54:11;0.52;;;0.30;;
19802;SDS011;66074;50.764;6.090;2023-04-01T01:56:42;0.30;;;0.30;;
19802;SDS011;66074;50.764;6.090;2023-04-01T01:59:12;0.30;;;0.30;;
19802;SDS011;66074;50.764;6.090;2023-04-01T02:01:45;1.35;;;0.50;;
19802;SDS011;66074;50.764;6.090;2023-04-01T02:04:14;0.63;;;0.30;;
19802;SDS011;66074;50.764;6.090;2023-04-01T02:06:43;0.95;;;0.50;;
19802;SDS011;66074;50.764;6.090;2023-04-01T02:09:17;0.70;;;0.40;;
19802;SDS011;66074;50.764;6.090;2023-04-01T02:14:10;1.98;;;0.75;;
19802;SDS011;66074;50.764;6.090;2023-04-01T02:16:46;0.75;;;0.40;;
19802;SDS011;66074;50.764;6.090;2023-04-01T02:19:18;0.50;;;0.47;;
19802;SDS011;66074;50.764;6.090;2023-04-01T02:21:49;1.20;;;0.45;;
19802;SDS011;66074;50.764;6.090;2023-04-01T02:24:18;0.40;;;0.40;;
19802;SDS011;66074;50.764;6.090;2023-04-01T02:26:47;0.50;;;0.47;;
19802;SDS011;66074;50.764;6.090;2023-04-01T02:29:15;1.15;;;0.40;;
19802;SDS011;66074;50.764;6.090;2023-04-01T02:31:43;0.65;;;0.40;;
19802;SDS011;66074;50.764;6.090;2023-04-01T02:34:08;1.75;;;0.77;;
19802;SDS011;66074;50.764;6.090;2023-04-01T02:36:35;0.52;;;0.43;;
19802;SDS011;66074;50.764;6.090;2023-04-01T02:39:01;0.90;;;0.40;;
19802;SDS011;66074;50.764;6.090;2023-04-01T02:41:29;0.52;;;0.40;;
19802;SDS011;66074;50.764;6.090;2023-04-01T02:43:55;0.50;;;0.40;;
19802;SDS011;66074;50.764;6.090;2023-04-01T02:46:22;0.60;;;0.50;;
19802;SDS011;66074;50.764;6.090;2023-04-01T02:48:47;0.52;;;0.40;;
19802;SDS011;66074;50.764;6.090;2023-04-01T02:51:13;0.77;;;0.40;;
19802;SDS011;66074;50.764;6.090;2023-04-01T02:53:39;1.35;;;0.50;;
19802;SDS011;66074;50.764;6.090;2023-04-01T02:56:04;0.40;;;0.40;;
19802;SDS011;66074;50.764;6.090;2023-04-01T02:58:30;1.35;;;0.45;;
19802;SDS011;66074;50.764;6.090;2023-04-01T03:00:56;0.80;;;0.50;;
19802;SDS011;66074;50.764;6.090;2023-04-01T03:03:21;0.70;;;0.50;;
19802;SDS011;66074;50.764;6.090;2023-04-01T03:05:47;0.90;;;0.45;;
19802;SDS011;66074;50.764;6.090;2023-04-01T03:08:12;1.23;;;0.77;;
19802;SDS011;66074;50.764;6.090;2023-04-01T03:10:38;0.43;;;0.40;;
19802;SDS011;66074;50.764;6.090;2023-04-01T03:13:04;0.95;;;0.45;;
19802;SDS011;66074;50.764;6.090;2023-04-01T03:15:30;0.30;;;0.30;;
19802;SDS011;66074;50.764;6.090;2023-04-01T03:17:55;0.30;;;0.30;;
19802;SDS011;66074;50.764;6.090;2023-04-01T03:20:21;0.98;;;0.30;;
19802;SDS011;66074;50.764;6.090;2023-04-01T03:22:46;0.40;;;0.40;;
19802;SDS011;66074;50.764;6.090;2023-04-01T03:25:12;0.47;;;0.40;;
19802;SDS011;66074;50.764;6.090;2023-04-01T03:27:38;0.88;;;0.30;;
19802;SDS011;66074;50.764;6.090;2023-04-01T03:30:04;0.85;;;0.32;;
19802;SDS011;66074;50.764;6.090;2023-04-01T03:32:30;0.30;;;0.30;;
19802;SDS011;66074;50.764;6.090;2023-04-01T03:34:56;0.30;;;0.22;;
19802;SDS011;66074;50.764;6.090;2023-04-01T03:37:22;0.82;;;0.40;;
19802;SDS011;66074;50.764;6.090;2023-04-01T03:39:48;0.65;;;0.40;;
19802;SDS011;66074;50.764;6.090;2023-04-01T03:42:14;1.05;;;0.50;;
19802;SDS011;66074;50.764;6.090;2023-04-01T03:44:40;1.25;;;0.52;;
19802;SDS011;66074;50.764;6.090;2023-04-01T03:47:05;0.40;;;0.40;;
19802;SDS011;66074;50.764;6.090;2023-04-01T03:49:32;0.30;;;0.30;;
19802;SDS011;66074;50.764;6.090;2023-04-01T03:51:58;0.40;;;0.40;;
19802;SDS011;66074;50.764;6.090;2023-04-01T03:54:24;0.73;;;0.40;;
19802;SDS011;66074;50.764;6.090;2023-04-01T03:56:49;0.80;;;0.40;;
19802;SDS011;66074;50.764;6.090;2023-04-01T03:59:15;0.63;;;0.50;;
19802;SDS011;66074;50.764;6.090;2023-04-01T04:01:41;0.63;;;0.40;;
19802;SDS011;66074;50.764;6.090;2023-04-01T04:04:06;0.60;;;0.40;;
19802;SDS011;66074;50.764;6.090;2023-04-01T04:06:33;0.60;;;0.30;;
19802;SDS011;66074;50.764;6.090;2023-04-01T04:08:58;0.38;;;0.38;;
19802;SDS011;66074;50.764;6.090;2023-04-01T04:11:24;0.40;;;0.40;;
19802;SDS011;66074;50.764;6.090;2023-04-01T04:13:50;0.32;;;0.32;;
19802;SDS011;66074;50.764;6.090;2023-04-01T04:16:17;0.50;;;0.40;;
19802;SDS011;66074;50.764;6.090;2023-04-01T04:18:43;0.50;;;0.50;;
19802;SDS011;66074;50.764;6.090;2023-04-01T04:21:11;0.98;;;0.47;;
19802;SDS011;66074;50.764;6.090;2023-04-01T04:23:38;0.50;;;0.50;;
19802;SDS011;66074;50.764;6.090;2023-04-01T04:26:05;0.47;;;0.40;;
19802;SDS011;66074;50.764;6.090;2023-04-01T04:28:32;1.45;;;0.80;;
19802;SDS011;66074;50.764;6.090;2023-04-01T04:30:58;0.45;;;0.45;;
19802;SDS011;66074;50.764;6.090;2023-04-01T04:33:24;0.70;;;0.40;;
19802;SDS011;66074;50.764;6.090;2023-04-01T04:35:51;0.40;;;0.40;;
19802;SDS011;66074;50.764;6.090;2023-04-01T04:38:16;0.35;;;0.35;;
19802;SDS011;66074;50.764;6.090;2023-04-01T04:40:42;1.00;;;0.50;;
19802;SDS011;66074;50.764;6.090;2023-04-01T04:43:10;0.50;;;0.50;;
19802;SDS011;66074;50.764;6.090;2023-04-01T04:45:37;0.50;;;0.50;;
19802;SDS011;66074;50.764;6.090;2023-04-01T04:48:02;0.60;;;0.60;;
19802;SDS011;66074;50.764;6.090;2023-04-01T04:50:28;1.25;;;0.82;;
19802;SDS011;66074;50.764;6.090;2023-04-01T04:52:54;0.93;;;0.60;;
19802;SDS011;66074;50.764;6.090;2023-04-01T04:55:19;1.08;;;0.70;;
19802;SDS011;66074;50.764;6.090;2023-04-01T04:57:45;0.85;;;0.60;;
19802;SDS011;66074;50.764;6.090;2023-04-01T05:00:11;0.85;;;0.60;;
19802;SDS011;66074;50.764;6.090;2023-04-01T05:02:37;1.15;;;0.50;;
19802;SDS011;66074;50.764;6.090;2023-04-01T05:05:03;0.82;;;0.75;;
19802;SDS011;66074;50.764;6.090;2023-04-01T05:07:29;1.33;;;0.88;;
19802;SDS011;66074;50.764;6.090;2023-04-01T05:09:55;1.67;;;0.80;;
19802;SDS011;66074;50.764;6.090;2023-04-01T05:12:20;1.30;;;1.00;;
19802;SDS011;66074;50.764;6.090;2023-04-01T05:14:46;1.70;;;1.00;;
19802;SDS011;66074;50.764;6.090;2023-04-01T05:17:12;1.10;;;0.98;;
19802;SDS011;66074;50.764;6.090;2023-04-01T05:19:38;2.33;;;1.10;;
19802;SDS011;66074;50.764;6.090;2023-04-01T05:22:04;1.35;;;1.25;;
19802;SDS011;66074;50.764;6.090;2023-04-01T05:24:30;1.50;;;1.40;;
19802;SDS011;66074;50.764;6.090;2023-04-01T05:26:56;1.40;;;1.17;;
19802;SDS011;66074;50.764;6.090;2023-04-01T05:29:22;1.73;;;1.40;;
19802;SDS011;66074;50.764;6.090;2023-04-01T05:31:51;2.42;;;1.60;;
19802;SDS011;66074;50.764;6.090;2023-04-01T05:34:17;1.88;;;1.70;;
19802;SDS011;66074;50.764;6.090;2023-04-01T05:36:43;2.42;;;1.92;;
19802;SDS011;66074;50.764;6.090;2023-04-01T05:39:08;3.13;;;2.28;;
19802;SDS011;66074;50.764;6.090;2023-04-01T05:41:35;2.22;;;2.05;;
19802;SDS011;66074;50.764;6.090;2023-04-01T05:44:01;1.77;;;1.67;;
19802;SDS011;66074;50.764;6.090;2023-04-01T05:46:27;2.28;;;1.80;;
19802;SDS011;66074;50.764;6.090;2023-04-01T05:48:53;2.22;;;1.75;;
19802;SDS011;66074;50.764;6.090;2023-04-01T05:51:19;2.97;;;1.80;;
19802;SDS011;66074;50.764;6.090;2023-04-01T05:53:44;1.98;;;1.83;;
19802;SDS011;66074;50.764;6.090;2023-04-01T05:56:10;3.97;;;1.83;;
19802;SDS011;66074;50.764;6.090;2023-04-01T05:58:36;2.33;;;2.03;;
19802;SDS011;66074;50.764;6.090;2023-04-01T06:01:06;2.67;;;2.00;;
19802;SDS011;66074;50.764;6.090;2023-04-01T06:03:34;2.08;;;1.88;;
19802;SDS011;66074;50.764;6.090;2023-04-01T06:06:00;2.85;;;2.10;;
19802;SDS011;66074;50.764;6.090;2023-04-01T06:08:26;2.75;;;2.20;;
19802;SDS011;66074;50.764;6.090;2023-04-01T06:13:42;2.10;;;1.90;;
19802;SDS011;66074;50.764;6.090;2023-04-01T06:22:16;2.90;;;2.13;;
19802;SDS011;66074;50.764;6.090;2023-04-01T06:39:10;1.35;;;1.25;;
19802;SDS011;66074;50.764;6.090;2023-04-01T06:50:03;1.65;;;1.20;;
19802;SDS011;66074;50.764;6.090;2023-04-01T06:56:00;1.00;;;0.90;;
19802;SDS011;66074;50.764;6.090;2023-04-01T07:04:06;1.05;;;0.90;;
19802;SDS011;66074;50.764;6.090;2023-04-01T07:06:39;0.90;;;0.90;;
19802;SDS011;66074;50.764;6.090;2023-04-01T07:09:37;0.60;;;0.60;;
19802;SDS011;66074;50.764;6.090;2023-04-01T07:12:28;0.70;;;0.70;;
19802;SDS011;66074;50.764;6.090;2023-04-01T07:14:56;0.80;;;0.80;;
19802;SDS011;66074;50.764;6.090;2023-04-01T07:17:27;0.70;;;0.70;;
19802;SDS011;66074;50.764;6.090;2023-04-01T07:22:50;0.82;;;0.70;;
19802;SDS011;66074;50.764;6.090;2023-04-01T07:27:52;1.23;;;0.82;;
19802;SDS011;66074;50.764;6.090;2023-04-01T07:30:21;0.95;;;0.85;;
19802;SDS011;66074;50.764;6.090;2023-04-01T07:35:32;1.00;;;1.00;;
19802;SDS011;66074;50.764;6.090;2023-04-01T07:41:02;0.73;;;0.73;;
19802;SDS011;66074;50.764;6.090;2023-04-01T07:52:31;0.65;;;0.65;;
19802;SDS011;66074;50.764;6.090;2023-04-01T08:00:34;0.70;;;0.70;;
19802;SDS011;66074;50.764;6.090;2023-04-01T08:06:36;0.65;;;0.60;;
19802;SDS011;66074;50.764;6.090;2023-04-01T08:17:43;0.60;;;0.60;;
19802;SDS011;66074;50.764;6.090;2023-04-01T08:23:15;0.82;;;0.60;;
19802;SDS011;66074;50.764;6.090;2023-04-01T08:26:48;0.50;;;0.50;;
19802;SDS011;66074;50.764;6.090;2023-04-01T08:28:43;1.13;;;0.47;;
19802;SDS011;66074;50.764;6.090;2023-04-01T08:31:16;0.50;;;0.50;;
19802;SDS011;66074;50.764;6.090;2023-04-01T08:33:49;0.52;;;0.52;;
19802;SDS011;66074;50.764;6.090;2023-04-01T08:36:22;0.45;;;0.45;;
19802;SDS011;66074;50.764;6.090;2023-04-01T08:38:55;0.60;;;0.60;;
19802;SDS011;66074;50.764;6.090;2023-04-01T08:53:22;0.73;;;0.60;;
19802;SDS011;66074;50.764;6.090;2023-04-01T09:05:02;0.60;;;0.60;;
19802;SDS011;66074;50.764;6.090;2023-04-01T09:07:37;0.70;;;0.70;;
19802;SDS011;66074;50.764;6.090;2023-04-01T09:35:24;0.65;;;0.65;;
19802;SDS011;66074;50.764;6.090;2023-04-01T09:54:32;0.60;;;0.52;;
19802;SDS011;66074;50.764;6.090;2023-04-01T09:57:41;0.68;;;0.50;;
19802;SDS011;66074;50.764;6.090;2023-04-01T10:37:23;0.57;;;0.57;;
19802;SDS011;66074;50.764;6.090;2023-04-01T11:06:23;0.60;;;0.35;;
19802;SDS011;66074;50.764;6.090;2023-04-01T11:17:20;0.52;;;0.40;;
19802;SDS011;66074;50.764;6.090;2023-04-01T11:31:23;0.40;;;0.40;;
19802;SDS011;66074;50.764;6.090;2023-04-01T11:34:30;0.60;;;0.60;;
19802;SDS011;66074;50.764;6.090;2023-04-01T12:08:04;0.50;;;0.50;;
19802;SDS011;66074;50.764;6.090;2023-04-01T12:11:00;0.40;;;0.40;;
19802;SDS011;66074;50.764;6.090;2023-04-01T12:13:51;0.55;;;0.55;;
19802;SDS011;66074;50.764;6.090;2023-04-01T12:30:45;0.50;;;0.50;;
19802;SDS011;66074;50.764;6.090;2023-04-01T12:33:24;0.70;;;0.70;;
19802;SDS011;66074;50.764;6.090;2023-04-01T12:35:55;0.60;;;0.60;;
19802;SDS011;66074;50.764;6.090;2023-04-01T12:41:33;0.70;;;0.70;;
19802;SDS011;66074;50.764;6.090;2023-04-01T12:47:00;0.75;;;0.75;;
19802;SDS011;66074;50.764;6.090;2023-04-01T13:06:20;1.75;;;0.90;;
19802;SDS011;66074;50.764;6.090;2023-04-01T13:20:36;0.63;;;0.63;;
19802;SDS011;66074;50.764;6.090;2023-04-01T13:23:08;0.55;;;0.55;;
19802;SDS011;66074;50.764;6.090;2023-04-01T13:43:07;0.50;;;0.50;;
19802;SDS011;66074;50.764;6.090;2023-04-01T13:56:24;0.57;;;0.57;;
19802;SDS011;66074;50.764;6.090;2023-04-01T14:12:57;0.60;;;0.50;;
19802;SDS011;66074;50.764;6.090;2023-04-01T14:15:36;0.60;;;0.60;;
19802;SDS011;66074;50.764;6.090;2023-04-01T14:29:37;0.68;;;0.68;;
19802;SDS011;66074;50.764;6.090;2023-04-01T14:35:41;0.70;;;0.70;;
19802;SDS011;66074;50.764;6.090;2023-04-01T14:38:32;2.30;;;2.10;;
19802;SDS011;66074;50.764;6.090;2023-04-01T14:41:41;0.63;;;0.50;;
19802;SDS011;66074;50.764;6.090;2023-04-01T14:46:58;0.50;;;0.40;;
19802;SDS011;66074;50.764;6.090;2023-04-01T14:49:42;0.77;;;0.32;;
19802;SDS011;66074;50.764;6.090;2023-04-01T14:54:48;0.50;;;0.50;;
19802;SDS011;66074;50.764;6.090;2023-04-01T15:00:00;1.98;;;0.60;;
19802;SDS011;66074;50.764;6.090;2023-04-01T15:05:27;0.43;;;0.40;;
19802;SDS011;66074;50.764;6.090;2023-04-01T15:08:18;0.95;;;0.77;;
19802;SDS011;66074;50.764;6.090;2023-04-01T15:10:59;0.50;;;0.50;;
19802;SDS011;66074;50.764;6.090;2023-04-01T15:14:00;0.75;;;0.50;;
19802;SDS011;66074;50.764;6.090;2023-04-01T15:27:46;0.43;;;0.43;;
19802;SDS011;66074;50.764;6.090;2023-04-01T15:33:02;1.55;;;0.82;;
19802;SDS011;66074;50.764;6.090;2023-04-01T15:39:17;0.70;;;0.70;;
19802;SDS011;66074;50.764;6.090;2023-04-01T15:41:53;0.60;;;0.60;;
19802;SDS011;66074;50.764;6.090;2023-04-01T15:44:37;0.50;;;0.50;;
19802;SDS011;66074;50.764;6.090;2023-04-01T15:49:54;0.90;;;0.70;;
19802;SDS011;66074;50.764;6.090;2023-04-01T15:57:56;0.60;;;0.60;;
19802;SDS011;66074;50.764;6.090;2023-04-01T16:00:33;0.70;;;0.70;;
19802;SDS011;66074;50.764;6.090;2023-04-01T16:03:20;0.77;;;0.77;;
19802;SDS011;66074;50.764;6.090;2023-04-01T16:06:14;0.52;;;0.52;;
19802;SDS011;66074;50.764;6.090;2023-04-01T16:14:44;0.80;;;0.80;;
19802;SDS011;66074;50.764;6.090;2023-04-01T16:20:34;0.82;;;0.60;;
19802;SDS011;66074;50.764;6.090;2023-04-01T16:26:15;1.58;;;1.23;;
19802;SDS011;66074;50.764;6.090;2023-04-01T16:28:59;0.60;;;0.60;;
19802;SDS011;66074;50.764;6.090;2023-04-01T16:31:47;0.75;;;0.70;;
19802;SDS011;66074;50.764;6.090;2023-04-01T16:36:53;0.65;;;0.60;;
19802;SDS011;66074;50.764;6.090;2023-04-01T16:47:23;0.90;;;0.90;;
19802;SDS011;66074;50.764;6.090;2023-04-01T16:50:13;2.13;;;1.00;;
19802;SDS011;66074;50.764;6.090;2023-04-01T16:52:57;0.90;;;0.90;;
19802;SDS011;66074;50.764;6.090;2023-04-01T16:55:34;1.30;;;1.20;;
19802;SDS011;66074;50.764;6.090;2023-04-01T16:58:09;1.33;;;0.95;;
19802;SDS011;66074;50.764;6.090;2023-04-01T17:03:27;1.02;;;1.00;;
19802;SDS011;66074;50.764;6.090;2023-04-01T17:06:03;0.80;;;0.80;;
19802;SDS011;66074;50.764;6.090;2023-04-01T17:11:18;0.90;;;0.90;;
19802;SDS011;66074;50.764;6.090;2023-04-01T17:33:05;1.05;;;1.02;;
19802;SDS011;66074;50.764;6.090;2023-04-01T17:43:52;1.30;;;1.20;;
19802;SDS011;66074;50.764;6.090;2023-04-01T17:51:33;1.25;;;1.13;;
19802;SDS011;66074;50.764;6.090;2023-04-01T17:59:37;1.10;;;1.10;;
19802;SDS011;66074;50.764;6.090;2023-04-01T18:17:03;1.02;;;1.00;;
19802;SDS011;66074;50.764;6.090;2023-04-01T18:24:40;0.93;;;0.80;;
19802;SDS011;66074;50.764;6.090;2023-04-01T18:27:23;0.77;;;0.77;;
19802;SDS011;66074;50.764;6.090;2023-04-01T18:29:55;0.82;;;0.80;;
19802;SDS011;66074;50.764;6.090;2023-04-01T18:35:24;0.73;;;0.73;;
19802;SDS011;66074;50.764;6.090;2023-04-01T18:43:27;0.82;;;0.80;;
19802;SDS011;66074;50.764;6.090;2023-04-01T18:46:26;0.70;;;0.70;;
19802;SDS011;66074;50.764;6.090;2023-04-01T18:49:11;0.60;;;0.60;;
19802;SDS011;66074;50.764;6.090;2023-04-01T18:51:57;0.52;;;0.52;;
19802;SDS011;66074;50.764;6.090;2023-04-01T18:54:31;0.68;;;0.68;;
19802;SDS011;66074;50.764;6.090;2023-04-01T18:57:16;0.98;;;0.85;;
19802;SDS011;66074;50.764;6.090;2023-04-01T18:59:53;0.75;;;0.73;;
19802;SDS011;66074;50.764;6.090;2023-04-01T19:02:25;0.60;;;0.60;;
19802;SDS011;66074;50.764;6.090;2023-04-01T19:20:37;0.80;;;0.80;;
19802;SDS011;66074;50.764;6.090;2023-04-01T19:24:13;1.17;;;1.00;;
19802;SDS011;66074;50.764;6.090;2023-04-01T19:26:14;1.10;;;0.93;;
19802;SDS011;66074;50.764;6.090;2023-04-01T19:29:01;1.10;;;1.10;;
19802;SDS011;66074;50.764;6.090;2023-04-01T19:43:12;0.93;;;0.93;;
19802;SDS011;66074;50.764;6.090;2023-04-01T19:45:46;1.00;;;1.00;;
19802;SDS011;66074;50.764;6.090;2023-04-01T19:48:44;1.30;;;1.20;;
19802;SDS011;66074;50.764;6.090;2023-04-01T19:56:52;1.08;;;1.08;;
19802;SDS011;66074;50.764;6.090;2023-04-01T19:59:40;1.02;;;1.00;;
19802;SDS011;66074;50.764;6.090;2023-04-01T20:04:44;1.00;;;1.00;;
19802;SDS011;66074;50.764;6.090;2023-04-01T20:07:21;1.02;;;1.02;;
19802;SDS011;66074;50.764;6.090;2023-04-01T20:10:16;1.10;;;1.10;;
19802;SDS011;66074;50.764;6.090;2023-04-01T20:15:45;1.40;;;1.30;;
19802;SDS011;66074;50.764;6.090;2023-04-01T20:18:23;1.25;;;0.90;;
19802;SDS011;66074;50.764;6.090;2023-04-01T20:21:34;1.15;;;1.05;;
19802;SDS011;66074;50.764;6.090;2023-04-01T20:24:14;1.48;;;1.38;;
19802;SDS011;66074;50.764;6.090;2023-04-01T20:27:08;1.05;;;1.05;;
19802;SDS011;66074;50.764;6.090;2023-04-01T20:29:55;0.90;;;0.90;;
19802;SDS011;66074;50.764;6.090;2023-04-01T20:38:17;0.80;;;0.80;;
19802;SDS011;66074;50.764;6.090;2023-04-01T20:52:02;1.17;;;1.17;;
19802;SDS011;66074;50.764;6.090;2023-04-01T20:54:48;1.00;;;1.00;;
19802;SDS011;66074;50.764;6.090;2023-04-01T21:03:18;1.42;;;1.33;;
19802;SDS011;66074;50.764;6.090;2023-04-01T21:06:04;1.50;;;1.40;;
19802;SDS011;66074;50.764;6.090;2023-04-01T21:11:18;1.05;;;1.05;;
19802;SDS011;66074;50.764;6.090;2023-04-01T21:41:08;2.60;;;2.40;;
19802;SDS011;66074;50.764;6.090;2023-04-01T22:07:09;2.70;;;2.50;;
19802;SDS011;66074;50.764;6.090;2023-04-01T22:12:35;2.80;;;2.60;;
19802;SDS011;66074;50.764;6.090;2023-04-01T22:18:07;2.75;;;2.55;;
19802;SDS011;66074;50.764;6.090;2023-04-01T22:20:47;4.43;;;4.13;;
19802;SDS011;66074;50.764;6.090;2023-04-01T22:23:29;5.68;;;5.28;;
19802;SDS011;66074;50.764;6.090;2023-04-01T22:26:04;5.70;;;5.30;;
19802;SDS011;66074;50.764;6.090;2023-04-01T22:31:03;4.97;;;4.60;;
19802;SDS011;66074;50.764;6.090;2023-04-01T22:33:32;4.93;;;4.57;;
19802;SDS011;66074;50.764;6.090;2023-04-01T22:36:06;4.53;;;4.22;;
19802;SDS011;66074;50.764;6.090;2023-04-01T22:41:34;4.72;;;4.43;;
19802;SDS011;66074;50.764;6.090;2023-04-01T22:44:02;4.63;;;4.32;;
19802;SDS011;66074;50.764;6.090;2023-04-01T22:49:00;2.53;;;2.42;;
19802;SDS011;66074;50.764;6.090;2023-04-01T22:51:47;2.17;;;2.08;;
19802;SDS011;66074;50.764;6.090;2023-04-01T22:55:20;2.30;;;2.20;;
19802;SDS011;66074;50.764;6.090;2023-04-01T23:02:35;2.50;;;2.30;;
19802;SDS011;66074;50.764;6.090;2023-04-01T23:05:05;4.78;;;4.47;;
19802;SDS011;66074;50.764;6.090;2023-04-01T23:10:56;5.82;;;5.43;;
19802;SDS011;66074;50.764;6.090;2023-04-01T23:13:26;6.57;;;6.07;;
19802;SDS011;66074;50.764;6.090;2023-04-01T23:15:59;6.78;;;6.28;;
19802;SDS011;66074;50.764;6.090;2023-04-01T23:21:17;8.18;;;7.57;;
19802;SDS011;66074;50.764;6.090;2023-04-01T23:29:23;9.00;;;8.30;;
19802;SDS011;66074;50.764;6.090;2023-04-01T23:32:10;8.27;;;7.68;;
19802;SDS011;66074;50.764;6.090;2023-04-01T23:34:52;7.63;;;7.05;;
19802;SDS011;66074;50.764;6.090;2023-04-01T23:37:21;5.68;;;5.28;;
19802;SDS011;66074;50.764;6.090;2023-04-01T23:39:49;4.50;;;4.20;;
19802;SDS011;66074;50.764;6.090;2023-04-01T23:42:27;4.22;;;3.92;;
19802;SDS011;66074;50.764;6.090;2023-04-01T23:44:56;3.78;;;3.58;;
19802;SDS011;66074;50.764;6.090;2023-04-01T23:47:24;4.30;;;4.00;;
19802;SDS011;66074;50.764;6.090;2023-04-01T23:49:58;4.22;;;3.92;;
19802;SDS011;66074;50.764;6.090;2023-04-01T23:52:35;4.78;;;4.47;;
19802;SDS011;66074;50.764;6.090;2023-04-01T23:57:35;5.38;;;4.97;;
